Terminal Aerodrome Forecast
Issued by NWS

Home | Current Version | Previous Version | Text Only | Print | Product List | Glossary On
Versions: 1 2 3 4 5 6 7 8 9 10 11 12 13 14 15 16 17 18 19 20 21 22 23 24 25 26
000
FTUS43 KDLH 272340
TAFHYR
TAF
KHYR 272340Z 2800/2824 36006KT 2SM RA BR FEW006 BKN011 OVC023
     FM280300 03003KT 4SM -SHRA OVC007
     FM280600 00000KT 1 1/2SM BR OVC004
      TEMPO 2806/2809 1/2SM -DZ FG OVC001
     FM281400 VRB02KT P6SM OVC015
     FM281700 20006KT P6SM SCT015 BKN120=

USA.gov is the U.S. government's official web portal to all federal, state and local government web resources and services.